GMMC/CAS METAR and TAF weather

Enter ICAO airport designator
Station Type Date Time Source
GMMC METAR 2018/01/22 20:00 UTC NOAA

GMMC 222000Z 04006KT 8000 FEW016 14/12 Q1027


Station Type Date Time Source
GMMC Decoded METAR 2018/01/22 20:00 UTC NOAA

Casablanca, Morocco (GMMC) 33-34N 007-40W 62M
Jan 22, 2018 - 03:00 PM EST / 2018.01.22 2000 UTC
Wind: from the NE (040 degrees) at 7 MPH (6 KT):0
Visibility: 4 mile(s):0
Sky conditions: mostly clear
Temperature: 57 F (14 C)
Dew Point: 53 F (12 C)
Relative Humidity: 87%
Pressure (altimeter): 30.33 in. Hg (1027 hPa)
ob: GMMC 222000Z 04006KT 8000 FEW016 14/12 Q1027
cycle: 20

Station Type Date Time Source
GMMC TAF 2016/05/22 17:00 UTC NOAA

FTMC31 GMMC 221700 RRA TAF LPPT 221700Z 2218/2324 34013KT CAVOK
BECMG 2221/2224 34007KT
BECMG 2310/2312 VRB03KT


Example: see airport list